Hlavní strana
METAR-TAF:

METAR-TAF

Letiště :

Piney Island, Severní Karolína, Spojené státy americké

zeměpisná šířka: 35-01-20N, zeměpisná délka: 076-27-45W, výška: 5 m

Aktuální stav počasí

Zpráva byla vytvořena před 26 minutami, v 17:56 UTC
Západoseverozápadní vítr 19 kt s nárazy do 26 kt
Teplota 11°C
Vlhkost vzduchu 40%
Tlak 1013 hPa
Viditelnost: 16.1 km
Jasno

METAR: KNBT 271756Z AUTO 30019G26KT 10SM CLR 11/M02 A2992 RMK AO2 PK WND 29027/1731 SLP137 T01061022 10111 20083 51007

Čas: 13:22 (18:22 UTC)


TAF: chybějící

Stav a předpovědi počasí z více než 4 000 letišť (zprávy METAR a TAF).

Červené a žluté tečky na mapě představují dostupné meteorologické stanice.

Když kurzor umístíte na tečku, zobrazí se název stanice.

Pak kliknutím zobrazíte stav a předpověď počasí.

Chcete-li změnit mapu, kliknutím na zelené tlačítko se znaménkem +mapu přiblížíte, kliknutím na zelené tlačítko se znaménkem – mapu oddálíte a kliknutím na zelené šipky přejdete na sousední mapy.


METAR-TAF: